sensor_id;sensor_type;location;lat;lon;timestamp;pressure;altitude;pressure_sealevel;temperature;humidity
20009;BME280;10165;42.662;23.260;2022-08-19T00:02:00;93918.13;;;26.60;42.27
20009;BME280;10165;42.662;23.260;2022-08-19T00:04:31;93923.31;;;26.27;42.00
20009;BME280;10165;42.662;23.260;2022-08-19T00:06:59;93924.47;;;26.48;41.97
20009;BME280;10165;42.662;23.260;2022-08-19T00:09:27;93927.72;;;26.55;41.75
20009;BME280;10165;42.662;23.260;2022-08-19T00:11:55;93918.88;;;26.60;41.91
20009;BME280;10165;42.662;23.260;2022-08-19T00:14:24;93930.94;;;26.63;41.54
20009;BME280;10165;42.662;23.260;2022-08-19T00:16:52;93919.78;;;26.48;41.89
20009;BME280;10165;42.662;23.260;2022-08-19T00:19:22;93933.75;;;26.50;42.01
20009;BME280;10165;42.662;23.260;2022-08-19T00:21:49;93939.38;;;26.47;42.10
20009;BME280;10165;42.662;23.260;2022-08-19T00:24:16;93938.63;;;26.46;42.09
20009;BME280;10165;42.662;23.260;2022-08-19T00:26:44;93933.84;;;26.38;42.47
20009;BME280;10165;42.662;23.260;2022-08-19T00:29:14;93935.38;;;26.39;42.47
20009;BME280;10165;42.662;23.260;2022-08-19T00:31:43;93935.38;;;26.39;42.46
20009;BME280;10165;42.662;23.260;2022-08-19T00:34:11;93935.38;;;26.39;42.32
20009;BME280;10165;42.662;23.260;2022-08-19T00:36:39;93924.44;;;26.39;42.20
20009;BME280;10165;42.662;23.260;2022-08-19T00:39:06;93930.19;;;26.32;41.96
20009;BME280;10165;42.662;23.260;2022-08-19T00:41:33;93929.13;;;26.29;41.70
20009;BME280;10165;42.662;23.260;2022-08-19T00:46:35;93925.19;;;26.39;42.43
20009;BME280;10165;42.662;23.260;2022-08-19T00:49:19;93921.53;;;26.33;42.10
20009;BME280;10165;42.662;23.260;2022-08-19T00:51:50;93919.50;;;26.25;42.45
20009;BME280;10165;42.662;23.260;2022-08-19T00:54:18;93918.03;;;26.33;42.85
20009;BME280;10165;42.662;23.260;2022-08-19T00:56:54;93920.91;;;26.29;42.76
20009;BME280;10165;42.662;23.260;2022-08-19T00:59:21;93924.50;;;26.26;42.96
20009;BME280;10165;42.662;23.260;2022-08-19T01:02:08;93920.41;;;26.22;42.91
20009;BME280;10165;42.662;23.260;2022-08-19T01:04:35;93922.16;;;26.15;43.09
20009;BME280;10165;42.662;23.260;2022-08-19T01:07:02;93921.59;;;26.21;43.09
20009;BME280;10165;42.662;23.260;2022-08-19T01:09:29;93918.09;;;26.20;42.90
20009;BME280;10165;42.662;23.260;2022-08-19T01:11:57;93923.63;;;26.07;43.42
20009;BME280;10165;42.662;23.260;2022-08-19T01:14:23;93920.25;;;26.03;43.34
20009;BME280;10165;42.662;23.260;2022-08-19T01:16:52;93920.25;;;26.03;43.33
20009;BME280;10165;42.662;23.260;2022-08-19T01:19:31;93916.22;;;25.86;43.70
20009;BME280;10165;42.662;23.260;2022-08-19T01:22:19;93916.13;;;25.99;43.63
20009;BME280;10165;42.662;23.260;2022-08-19T01:24:58;93913.50;;;25.95;44.05
20009;BME280;10165;42.662;23.260;2022-08-19T01:27:25;93916.69;;;25.72;44.01
20009;BME280;10165;42.662;23.260;2022-08-19T01:29:55;93913.53;;;25.52;43.87
20009;BME280;10165;42.662;23.260;2022-08-19T01:32:22;93918.47;;;25.44;44.35
20009;BME280;10165;42.662;23.260;2022-08-19T01:35:00;93924.59;;;25.70;44.10
20009;BME280;10165;42.662;23.260;2022-08-19T01:37:28;93913.28;;;25.81;44.32
20009;BME280;10165;42.662;23.260;2022-08-19T01:39:57;93923.72;;;25.73;44.17
20009;BME280;10165;42.662;23.260;2022-08-19T01:42:23;93926.63;;;25.57;44.09
20009;BME280;10165;42.662;23.260;2022-08-19T01:44:56;93921.06;;;25.48;44.67
20009;BME280;10165;42.662;23.260;2022-08-19T01:47:22;93927.25;;;25.61;44.29
20009;BME280;10165;42.662;23.260;2022-08-19T01:49:49;93930.88;;;25.58;44.02
20009;BME280;10165;42.662;23.260;2022-08-19T01:52:16;93930.25;;;25.41;44.84
20009;BME280;10165;42.662;23.260;2022-08-19T01:54:43;93930.75;;;25.61;44.28
20009;BME280;10165;42.662;23.260;2022-08-19T01:57:12;93929.00;;;25.67;44.23
20009;BME280;10165;42.662;23.260;2022-08-19T01:59:42;93927.84;;;25.78;44.22
20009;BME280;10165;42.662;23.260;2022-08-19T02:02:09;93927.59;;;25.63;44.15
20009;BME280;10165;42.662;23.260;2022-08-19T02:04:39;93930.59;;;25.56;44.42
20009;BME280;10165;42.662;23.260;2022-08-19T02:07:06;93926.63;;;25.57;44.59
20009;BME280;10165;42.662;23.260;2022-08-19T02:09:35;93923.88;;;25.57;45.04
20009;BME280;10165;42.662;23.260;2022-08-19T02:12:03;93925.97;;;25.53;44.80
20009;BME280;10165;42.662;23.260;2022-08-19T02:14:30;93923.81;;;25.48;45.15
20009;BME280;10165;42.662;23.260;2022-08-19T02:16:56;93929.16;;;25.51;45.35
20009;BME280;10165;42.662;23.260;2022-08-19T02:19:23;93929.31;;;25.35;45.64
20009;BME280;10165;42.662;23.260;2022-08-19T02:21:50;93931.28;;;25.35;45.44
20009;BME280;10165;42.662;23.260;2022-08-19T02:24:16;93926.78;;;25.41;45.39
20009;BME280;10165;42.662;23.260;2022-08-19T02:26:43;93928.53;;;25.35;45.46
20009;BME280;10165;42.662;23.260;2022-08-19T02:29:10;93922.16;;;25.16;45.70
20009;BME280;10165;42.662;23.260;2022-08-19T02:31:37;93918.88;;;25.21;45.87
20009;BME280;10165;42.662;23.260;2022-08-19T02:34:03;93918.81;;;25.34;45.43
20009;BME280;10165;42.662;23.260;2022-08-19T02:36:30;93924.13;;;25.15;45.83
20009;BME280;10165;42.662;23.260;2022-08-19T02:38:57;93919.09;;;25.14;45.88
20009;BME280;10165;42.662;23.260;2022-08-19T02:41:29;93919.94;;;25.23;45.58
20009;BME280;10165;42.662;23.260;2022-08-19T02:43:59;93918.88;;;25.08;46.06
20009;BME280;10165;42.662;23.260;2022-08-19T02:46:48;93918.69;;;25.03;45.90
20009;BME280;10165;42.662;23.260;2022-08-19T02:49:18;93920.50;;;25.18;46.26
20009;BME280;10165;42.662;23.260;2022-08-19T02:51:46;93916.94;;;24.96;46.19
20009;BME280;10165;42.662;23.260;2022-08-19T02:54:14;93930.41;;;24.91;46.76
20009;BME280;10165;42.662;23.260;2022-08-19T02:56:43;93939.22;;;25.07;46.62
20009;BME280;10165;42.662;23.260;2022-08-19T02:59:11;93938.44;;;25.07;46.49
20009;BME280;10165;42.662;23.260;2022-08-19T03:01:40;93942.75;;;24.95;47.00
20009;BME280;10165;42.662;23.260;2022-08-19T03:04:09;93945.16;;;24.68;47.44
20009;BME280;10165;42.662;23.260;2022-08-19T03:06:41;93941.44;;;24.74;46.48
20009;BME280;10165;42.662;23.260;2022-08-19T03:09:10;93938.94;;;24.67;47.12
20009;BME280;10165;42.662;23.260;2022-08-19T03:11:37;93937.28;;;24.70;47.31
20009;BME280;10165;42.662;23.260;2022-08-19T03:14:05;93932.16;;;24.72;47.19
20009;BME280;10165;42.662;23.260;2022-08-19T03:16:39;93934.13;;;24.84;46.94
20009;BME280;10165;42.662;23.260;2022-08-19T03:19:07;93928.44;;;24.79;47.16
20009;BME280;10165;42.662;23.260;2022-08-19T03:21:34;93936.09;;;24.84;47.00
20009;BME280;10165;42.662;23.260;2022-08-19T03:24:04;93930.50;;;24.62;47.40
20009;BME280;10165;42.662;23.260;2022-08-19T03:26:32;93933.03;;;24.56;47.93
20009;BME280;10165;42.662;23.260;2022-08-19T03:29:03;93933.47;;;24.55;48.01
20009;BME280;10165;42.662;23.260;2022-08-19T03:31:31;93935.88;;;24.53;47.47
20009;BME280;10165;42.662;23.260;2022-08-19T03:34:23;93933.59;;;24.64;47.38
20009;BME280;10165;42.662;23.260;2022-08-19T03:36:54;93942.22;;;24.62;47.81
20009;BME280;10165;42.662;23.260;2022-08-19T03:39:23;93939.16;;;24.60;47.31
20009;BME280;10165;42.662;23.260;2022-08-19T03:41:52;93934.56;;;24.57;47.54
20009;BME280;10165;42.662;23.260;2022-08-19T03:44:39;93936.97;;;24.68;47.15
20009;BME280;10165;42.662;23.260;2022-08-19T03:47:06;93943.09;;;24.72;47.25
20009;BME280;10165;42.662;23.260;2022-08-19T03:49:33;93947.47;;;24.57;47.94
20009;BME280;10165;42.662;23.260;2022-08-19T03:52:02;93955.97;;;24.59;47.78
20009;BME280;10165;42.662;23.260;2022-08-19T03:54:34;93957.50;;;24.60;48.01
20009;BME280;10165;42.662;23.260;2022-08-19T03:57:00;93951.94;;;24.63;47.95
20009;BME280;10165;42.662;23.260;2022-08-19T03:59:30;93959.38;;;24.63;47.83
20009;BME280;10165;42.662;23.260;2022-08-19T04:01:59;93961.22;;;24.66;47.81
20009;BME280;10165;42.662;23.260;2022-08-19T04:04:27;93961.09;;;24.82;47.58
20009;BME280;10165;42.662;23.260;2022-08-19T04:06:57;93960.75;;;24.80;47.89
20009;BME280;10165;42.662;23.260;2022-08-19T04:09:24;93962.09;;;24.75;48.22
20009;BME280;10165;42.662;23.260;2022-08-19T04:11:54;93966.47;;;24.86;47.75
20009;BME280;10165;42.662;23.260;2022-08-19T04:14:25;93964.16;;;24.59;48.26
20009;BME280;10165;42.662;23.260;2022-08-19T04:16:53;93968.75;;;24.62;48.19
20009;BME280;10165;42.662;23.260;2022-08-19T04:19:20;93969.19;;;24.73;48.40
20009;BME280;10165;42.662;23.260;2022-08-19T04:21:49;93967.56;;;24.75;48.19
20009;BME280;10165;42.662;23.260;2022-08-19T04:24:17;93971.25;;;24.69;48.82
20009;BME280;10165;42.662;23.260;2022-08-19T04:26:44;93971.84;;;24.89;47.80
20009;BME280;10165;42.662;23.260;2022-08-19T04:29:17;93978.84;;;24.90;48.30
20009;BME280;10165;42.662;23.260;2022-08-19T04:31:45;93970.72;;;24.99;48.30
20009;BME280;10165;42.662;23.260;2022-08-19T04:34:14;93967.91;;;25.03;47.90
20009;BME280;10165;42.662;23.260;2022-08-19T04:36:43;93977.19;;;25.05;48.17
20009;BME280;10165;42.662;23.260;2022-08-19T04:39:14;93974.75;;;25.07;47.94
20009;BME280;10165;42.662;23.260;2022-08-19T04:41:41;93969.81;;;25.15;48.01
20009;BME280;10165;42.662;23.260;2022-08-19T04:44:27;93975.97;;;25.06;48.28
20009;BME280;10165;42.662;23.260;2022-08-19T04:46:58;93979.25;;;25.14;47.84
20009;BME280;10165;42.662;23.260;2022-08-19T04:49:27;93977.03;;;25.21;47.64
20009;BME280;10165;42.662;23.260;2022-08-19T04:51:54;93967.59;;;25.35;47.67
20009;BME280;10165;42.662;23.260;2022-08-19T04:54:23;93973.78;;;25.01;47.20
20009;BME280;10165;42.662;23.260;2022-08-19T04:57:06;93973.44;;;24.99;48.00
20009;BME280;10165;42.662;23.260;2022-08-19T04:59:34;93976.41;;;25.17;47.72
20009;BME280;10165;42.662;23.260;2022-08-19T05:02:02;93983.00;;;24.95;47.89
20009;BME280;10165;42.662;23.260;2022-08-19T05:04:29;93980.09;;;25.11;47.14
20009;BME280;10165;42.662;23.260;2022-08-19T05:07:00;93985.91;;;25.13;47.24
20009;BME280;10165;42.662;23.260;2022-08-19T05:09:29;93988.41;;;25.20;47.00
20009;BME280;10165;42.662;23.260;2022-08-19T05:12:16;93980.31;;;25.29;46.59
20009;BME280;10165;42.662;23.260;2022-08-19T05:14:44;93983.75;;;25.42;46.51
20009;BME280;10165;42.662;23.260;2022-08-19T05:17:14;93985.94;;;25.60;45.99
20009;BME280;10165;42.662;23.260;2022-08-19T05:20:02;93977.41;;;25.58;45.81
20009;BME280;10165;42.662;23.260;2022-08-19T05:22:48;93983.13;;;25.73;45.86
20009;BME280;10165;42.662;23.260;2022-08-19T05:25:18;93977.53;;;25.76;46.01
20009;BME280;10165;42.662;23.260;2022-08-19T05:27:46;93977.63;;;25.85;45.76
20009;BME280;10165;42.662;23.260;2022-08-19T05:30:13;93983.31;;;25.91;45.41
20009;BME280;10165;42.662;23.260;2022-08-19T05:32:41;93986.84;;;26.00;45.01
20009;BME280;10165;42.662;23.260;2022-08-19T05:35:08;93986.22;;;25.96;44.65
20009;BME280;10165;42.662;23.260;2022-08-19T05:37:36;93978.72;;;26.09;44.79
20009;BME280;10165;42.662;23.260;2022-08-19T05:40:03;93987.09;;;26.15;45.01
20009;BME280;10165;42.662;23.260;2022-08-19T05:42:30;93982.88;;;25.58;46.30
20009;BME280;10165;42.662;23.260;2022-08-19T05:44:57;93984.44;;;25.34;46.66
20009;BME280;10165;42.662;23.260;2022-08-19T05:47:24;93986.97;;;25.97;45.32
20009;BME280;10165;42.662;23.260;2022-08-19T05:49:50;93986.34;;;25.93;45.50
20009;BME280;10165;42.662;23.260;2022-08-19T05:52:17;93980.31;;;26.20;45.74
20009;BME280;10165;42.662;23.260;2022-08-19T05:54:50;93984.19;;;25.53;45.82
20009;BME280;10165;42.662;23.260;2022-08-19T05:57:18;93987.13;;;25.59;45.67
20009;BME280;10165;42.662;23.260;2022-08-19T05:59:46;93984.50;;;26.11;44.37
20009;BME280;10165;42.662;23.260;2022-08-19T06:02:18;93984.03;;;25.91;45.07
20009;BME280;10165;42.662;23.260;2022-08-19T06:04:45;93982.38;;;25.72;45.35
20009;BME280;10165;42.662;23.260;2022-08-19T06:07:11;93990.94;;;26.17;44.91
20009;BME280;10165;42.662;23.260;2022-08-19T06:09:39;93987.22;;;26.55;44.43
20009;BME280;10165;42.662;23.260;2022-08-19T06:12:06;93984.06;;;26.66;43.89
20009;BME280;10165;42.662;23.260;2022-08-19T06:14:35;93987.66;;;26.84;43.46
20009;BME280;10165;42.662;23.260;2022-08-19T06:17:07;93987.88;;;26.68;43.56
20009;BME280;10165;42.662;23.260;2022-08-19T06:19:35;93993.81;;;26.67;44.04
20009;BME280;10165;42.662;23.260;2022-08-19T06:22:07;93984.25;;;26.71;43.89
20009;BME280;10165;42.662;23.260;2022-08-19T06:24:34;93986.16;;;26.61;44.06
20009;BME280;10165;42.662;23.260;2022-08-19T06:27:03;93982.13;;;26.75;44.27
20009;BME280;10165;42.662;23.260;2022-08-19T06:29:32;93986.13;;;27.23;42.68
20009;BME280;10165;42.662;23.260;2022-08-19T06:32:01;93994.03;;;26.50;44.51
20009;BME280;10165;42.662;23.260;2022-08-19T06:34:32;93993.72;;;26.79;44.29
20009;BME280;10165;42.662;23.260;2022-08-19T06:36:59;93991.00;;;26.79;44.15
20009;BME280;10165;42.662;23.260;2022-08-19T06:39:33;93988.41;;;27.25;43.81
20009;BME280;10165;42.662;23.260;2022-08-19T06:42:02;93989.50;;;27.45;43.47
20009;BME280;10165;42.662;23.260;2022-08-19T06:44:35;93989.50;;;27.36;43.93
20009;BME280;10165;42.662;23.260;2022-08-19T06:47:11;93989.41;;;27.58;42.76
20009;BME280;10165;42.662;23.260;2022-08-19T06:49:58;93991.19;;;27.43;42.71
20009;BME280;10165;42.662;23.260;2022-08-19T06:52:33;93988.50;;;27.52;42.47
20009;BME280;10165;42.662;23.260;2022-08-19T06:55:03;93988.56;;;27.30;42.72
20009;BME280;10165;42.662;23.260;2022-08-19T06:57:31;93987.88;;;27.66;41.88
20009;BME280;10165;42.662;23.260;2022-08-19T06:59:59;93995.69;;;27.19;42.63
20009;BME280;10165;42.662;23.260;2022-08-19T07:02:26;93993.69;;;27.86;41.03
20009;BME280;10165;42.662;23.260;2022-08-19T07:04:53;94000.69;;;27.69;41.14
20009;BME280;10165;42.662;23.260;2022-08-19T07:07:20;93998.72;;;28.24;40.05
20009;BME280;10165;42.662;23.260;2022-08-19T07:09:49;93997.69;;;28.13;40.95
20009;BME280;10165;42.662;23.260;2022-08-19T07:12:30;94004.97;;;27.97;40.71
20009;BME280;10165;42.662;23.260;2022-08-19T07:15:06;93996.44;;;27.77;41.39
20009;BME280;10165;42.662;23.260;2022-08-19T07:17:35;93994.44;;;28.05;40.53
20009;BME280;10165;42.662;23.260;2022-08-19T07:20:07;93998.38;;;28.40;40.15
20009;BME280;10165;42.662;23.260;2022-08-19T07:22:39;93998.88;;;28.30;40.34
20009;BME280;10165;42.662;23.260;2022-08-19T07:25:09;94001.78;;;28.08;40.31
20009;BME280;10165;42.662;23.260;2022-08-19T07:27:36;94003.16;;;28.13;40.34
20009;BME280;10165;42.662;23.260;2022-08-19T07:30:19;94002.47;;;28.63;40.17
20009;BME280;10165;42.662;23.260;2022-08-19T07:32:46;94005.44;;;28.05;40.35
20009;BME280;10165;42.662;23.260;2022-08-19T07:35:16;94003.44;;;28.33;40.22
20009;BME280;10165;42.662;23.260;2022-08-19T07:37:45;93994.78;;;28.67;39.71
20009;BME280;10165;42.662;23.260;2022-08-19T07:40:12;94001.41;;;28.70;39.39
20009;BME280;10165;42.662;23.260;2022-08-19T07:42:42;93994.44;;;28.92;39.35
20009;BME280;10165;42.662;23.260;2022-08-19T07:45:09;94000.06;;;28.47;39.58
20009;BME280;10165;42.662;23.260;2022-08-19T07:47:36;94006.22;;;28.93;39.62
20009;BME280;10165;42.662;23.260;2022-08-19T07:50:17;94012.22;;;28.73;38.88
20009;BME280;10165;42.662;23.260;2022-08-19T07:52:45;94000.28;;;28.85;39.11
20009;BME280;10165;42.662;23.260;2022-08-19T07:55:21;94002.56;;;29.20;38.65
20009;BME280;10165;42.662;23.260;2022-08-19T07:58:09;94001.03;;;29.19;38.73
20009;BME280;10165;42.662;23.260;2022-08-19T08:00:37;93998.56;;;28.88;38.95
20009;BME280;10165;42.662;23.260;2022-08-19T08:03:04;94001.31;;;29.30;38.98
20009;BME280;10165;42.662;23.260;2022-08-19T08:05:31;94002.56;;;29.20;38.21
20009;BME280;10165;42.662;23.260;2022-08-19T08:08:16;93994.69;;;29.60;37.05
20009;BME280;10165;42.662;23.260;2022-08-19T08:11:02;94002.50;;;29.38;37.75
20009;BME280;10165;42.662;23.260;2022-08-19T08:13:33;93998.03;;;29.64;37.07
20009;BME280;10165;42.662;23.260;2022-08-19T08:16:04;93997.09;;;29.67;37.66
20009;BME280;10165;42.662;23.260;2022-08-19T08:18:35;93994.81;;;29.66;37.58
20009;BME280;10165;42.662;23.260;2022-08-19T08:21:16;93989.06;;;29.78;35.90
20009;BME280;10165;42.662;23.260;2022-08-19T08:23:42;93980.88;;;29.93;35.55
20009;BME280;10165;42.662;23.260;2022-08-19T08:26:09;93976.25;;;30.28;35.83
20009;BME280;10165;42.662;23.260;2022-08-19T08:28:38;93986.78;;;30.01;35.27
20009;BME280;10165;42.662;23.260;2022-08-19T08:31:06;93981.88;;;30.19;34.50
20009;BME280;10165;42.662;23.260;2022-08-19T08:33:35;93983.03;;;30.27;34.05
20009;BME280;10165;42.662;23.260;2022-08-19T08:36:05;93979.69;;;30.38;32.14
20009;BME280;10165;42.662;23.260;2022-08-19T08:38:32;93971.44;;;30.67;32.23
20009;BME280;10165;42.662;23.260;2022-08-19T08:44:04;93976.38;;;30.34;31.89
20009;BME280;10165;42.662;23.260;2022-08-19T08:46:38;93973.69;;;30.25;31.29
20009;BME280;10165;42.662;23.260;2022-08-19T08:51:52;93980.84;;;30.75;31.68
20009;BME280;10165;42.662;23.260;2022-08-19T08:54:33;93976.56;;;30.74;30.93
20009;BME280;10165;42.662;23.260;2022-08-19T08:57:04;93960.56;;;30.93;29.54
20009;BME280;10165;42.662;23.260;2022-08-19T08:59:37;93961.03;;;31.06;31.00
20009;BME280;10165;42.662;23.260;2022-08-19T09:02:05;93964.75;;;30.89;30.91
20009;BME280;10165;42.662;23.260;2022-08-19T09:04:34;93962.47;;;30.14;32.61
20009;BME280;10165;42.662;23.260;2022-08-19T09:07:20;93961.53;;;30.31;31.15
20009;BME280;10165;42.662;23.260;2022-08-19T09:16:16;93960.59;;;30.64;30.66
20009;BME280;10165;42.662;23.260;2022-08-19T09:18:56;93954.63;;;31.15;29.26
20009;BME280;10165;42.662;23.260;2022-08-19T09:21:25;93956.69;;;30.85;29.49
20009;BME280;10165;42.662;23.260;2022-08-19T09:23:59;93953.16;;;30.99;29.12
20009;BME280;10165;42.662;23.260;2022-08-19T09:26:29;93942.38;;;31.36;28.53
20009;BME280;10165;42.662;23.260;2022-08-19T09:29:18;93951.72;;;31.79;27.46
20009;BME280;10165;42.662;23.260;2022-08-19T09:31:50;93944.25;;;31.45;27.89
20009;BME280;10165;42.662;23.260;2022-08-19T09:34:17;93935.16;;;31.79;28.26
20009;BME280;10165;42.662;23.260;2022-08-19T09:36:48;93944.31;;;31.91;28.05
20009;BME280;10165;42.662;23.260;2022-08-19T09:39:20;93936.56;;;31.95;27.36
20009;BME280;10165;42.662;23.260;2022-08-19T09:41:46;93935.81;;;31.94;28.05
20009;BME280;10165;42.662;23.260;2022-08-19T09:44:14;93938.69;;;32.05;27.80
20009;BME280;10165;42.662;23.260;2022-08-19T09:46:41;93938.66;;;32.00;27.20
20009;BME280;10165;42.662;23.260;2022-08-19T09:49:08;93935.38;;;31.55;26.70
20009;BME280;10165;42.662;23.260;2022-08-19T09:51:35;93938.84;;;31.15;26.24
20009;BME280;10165;42.662;23.260;2022-08-19T09:54:03;93943.84;;;31.72;26.50
20009;BME280;10165;42.662;23.260;2022-08-19T09:56:32;93933.53;;;31.52;26.99
20009;BME280;10165;42.662;23.260;2022-08-19T09:59:00;93928.16;;;31.43;27.46
20009;BME280;10165;42.662;23.260;2022-08-19T10:01:29;93931.91;;;31.05;27.28
20009;BME280;10165;42.662;23.260;2022-08-19T10:03:58;93923.34;;;31.38;27.14
20009;BME280;10165;42.662;23.260;2022-08-19T10:06:27;93915.31;;;31.40;26.45
20009;BME280;10165;42.662;23.260;2022-08-19T10:09:12;93918.22;;;31.92;26.56
20009;BME280;10165;42.662;23.260;2022-08-19T10:11:44;93908.69;;;31.93;25.90
20009;BME280;10165;42.662;23.260;2022-08-19T10:14:20;93906.50;;;32.02;25.67
20009;BME280;10165;42.662;23.260;2022-08-19T10:16:50;93923.84;;;32.23;25.25
20009;BME280;10165;42.662;23.260;2022-08-19T10:19:18;93909.06;;;32.06;25.56
20009;BME280;10165;42.662;23.260;2022-08-19T10:21:52;93912.41;;;31.90;25.44
20009;BME280;10165;42.662;23.260;2022-08-19T10:24:18;93912.25;;;31.99;25.09
20009;BME280;10165;42.662;23.260;2022-08-19T10:26:47;93908.94;;;31.95;25.26
20009;BME280;10165;42.662;23.260;2022-08-19T10:29:24;93906.88;;;31.90;25.22
20009;BME280;10165;42.662;23.260;2022-08-19T10:32:03;93901.50;;;32.58;25.23
20009;BME280;10165;42.662;23.260;2022-08-19T10:34:37;93897.09;;;31.89;24.93
20009;BME280;10165;42.662;23.260;2022-08-19T10:37:15;93892.09;;;32.44;25.38
20009;BME280;10165;42.662;23.260;2022-08-19T10:39:49;93894.94;;;32.55;24.92
20009;BME280;10165;42.662;23.260;2022-08-19T10:42:17;93893.84;;;32.73;25.40
20009;BME280;10165;42.662;23.260;2022-08-19T10:44:44;93890.06;;;32.13;25.29
20009;BME280;10165;42.662;23.260;2022-08-19T10:47:13;93894.34;;;32.14;24.86
20009;BME280;10165;42.662;23.260;2022-08-19T10:49:50;93894.34;;;32.14;25.26
20009;BME280;10165;42.662;23.260;2022-08-19T10:52:41;93888.06;;;32.45;24.62
20009;BME280;10165;42.662;23.260;2022-08-19T10:55:17;93893.50;;;32.60;24.68
20009;BME280;10165;42.662;23.260;2022-08-19T10:58:03;93887.25;;;32.65;24.98
20009;BME280;10165;42.662;23.260;2022-08-19T11:00:30;93887.97;;;31.83;26.11
20009;BME280;10165;42.662;23.260;2022-08-19T11:02:57;93892.47;;;32.06;25.86
20009;BME280;10165;42.662;23.260;2022-08-19T11:05:24;93885.03;;;32.43;25.30
20009;BME280;10165;42.662;23.260;2022-08-19T11:07:51;93894.81;;;32.13;25.25
20009;BME280;10165;42.662;23.260;2022-08-19T11:10:19;93883.59;;;32.22;25.13
20009;BME280;10165;42.662;23.260;2022-08-19T11:12:48;93889.00;;;32.37;25.09
20009;BME280;10165;42.662;23.260;2022-08-19T11:15:15;93883.97;;;32.66;25.31
20009;BME280;10165;42.662;23.260;2022-08-19T11:17:42;93879.88;;;32.56;24.62
20009;BME280;10165;42.662;23.260;2022-08-19T11:20:11;93887.84;;;32.49;24.93
20009;BME280;10165;42.662;23.260;2022-08-19T11:22:39;93885.25;;;32.65;24.68
20009;BME280;10165;42.662;23.260;2022-08-19T11:25:09;93871.03;;;32.89;24.54
20009;BME280;10165;42.662;23.260;2022-08-19T11:27:40;93877.34;;;32.90;24.34
20009;BME280;10165;42.662;23.260;2022-08-19T11:30:10;93872.84;;;32.92;25.17
20009;BME280;10165;42.662;23.260;2022-08-19T11:32:40;93871.03;;;32.84;24.51
20009;BME280;10165;42.662;23.260;2022-08-19T11:35:17;93868.22;;;32.78;24.46
20009;BME280;10165;42.662;23.260;2022-08-19T11:37:46;93865.56;;;32.95;25.24
20009;BME280;10165;42.662;23.260;2022-08-19T11:40:13;93859.19;;;32.83;24.14
20009;BME280;10165;42.662;23.260;2022-08-19T11:42:40;93854.84;;;32.71;24.43
20009;BME280;10165;42.662;23.260;2022-08-19T11:45:26;93856.84;;;32.39;25.10
20009;BME280;10165;42.662;23.260;2022-08-19T11:47:53;93847.88;;;32.50;24.90
20009;BME280;10165;42.662;23.260;2022-08-19T11:50:24;93847.38;;;33.25;24.76
20009;BME280;10165;42.662;23.260;2022-08-19T11:52:56;93859.53;;;32.96;24.78
20009;BME280;10165;42.662;23.260;2022-08-19T11:55:23;93853.16;;;33.27;25.00
20009;BME280;10165;42.662;23.260;2022-08-19T11:57:50;93856.31;;;33.62;24.93
20009;BME280;10165;42.662;23.260;2022-08-19T12:00:17;93851.06;;;33.65;24.62
20009;BME280;10165;42.662;23.260;2022-08-19T12:02:44;93851.00;;;33.59;24.38
20009;BME280;10165;42.662;23.260;2022-08-19T12:05:10;93846.03;;;33.69;24.65
20009;BME280;10165;42.662;23.260;2022-08-19T12:07:39;93839.81;;;33.31;24.82
20009;BME280;10165;42.662;23.260;2022-08-19T12:10:08;93839.84;;;32.52;24.99
20009;BME280;10165;42.662;23.260;2022-08-19T12:12:36;93831.19;;;33.12;25.00
20009;BME280;10165;42.662;23.260;2022-08-19T12:15:07;93828.34;;;33.60;24.77
20009;BME280;10165;42.662;23.260;2022-08-19T12:17:34;93827.69;;;33.88;24.43
20009;BME280;10165;42.662;23.260;2022-08-19T12:20:01;93813.06;;;33.87;24.04
20009;BME280;10165;42.662;23.260;2022-08-19T12:22:28;93822.75;;;33.44;24.54
20009;BME280;10165;42.662;23.260;2022-08-19T12:24:54;93818.16;;;33.19;24.09
20009;BME280;10165;42.662;23.260;2022-08-19T12:27:21;93811.84;;;33.24;24.62
20009;BME280;10165;42.662;23.260;2022-08-19T12:30:09;93815.50;;;33.57;24.97
20009;BME280;10165;42.662;23.260;2022-08-19T12:32:37;93806.72;;;33.70;24.26
20009;BME280;10165;42.662;23.260;2022-08-19T12:35:07;93808.00;;;33.75;23.51
20009;BME280;10165;42.662;23.260;2022-08-19T12:37:38;93799.19;;;34.04;23.56
20009;BME280;10165;42.662;23.260;2022-08-19T12:40:05;93801.72;;;33.91;25.22
20009;BME280;10165;42.662;23.260;2022-08-19T12:42:33;93798.44;;;34.09;24.78
20009;BME280;10165;42.662;23.260;2022-08-19T12:44:59;93797.19;;;34.04;23.90
20009;BME280;10165;42.662;23.260;2022-08-19T12:47:26;93799.97;;;34.10;23.86
20009;BME280;10165;42.662;23.260;2022-08-19T12:49:53;93786.88;;;34.27;24.29
20009;BME280;10165;42.662;23.260;2022-08-19T12:52:25;93788.63;;;34.14;24.39
20009;BME280;10165;42.662;23.260;2022-08-19T12:54:55;93788.59;;;33.75;24.79
20009;BME280;10165;42.662;23.260;2022-08-19T12:57:24;93782.84;;;33.95;24.66
20009;BME280;10165;42.662;23.260;2022-08-19T13:02:35;93786.38;;;34.23;24.23
20009;BME280;10165;42.662;23.260;2022-08-19T13:05:05;93785.59;;;34.11;24.31
20009;BME280;10165;42.662;23.260;2022-08-19T13:07:35;93782.84;;;33.84;24.50
20009;BME280;10165;42.662;23.260;2022-08-19T13:10:02;93769.97;;;33.81;24.53
20009;BME280;10165;42.662;23.260;2022-08-19T13:12:29;93761.94;;;34.22;24.42
20009;BME280;10165;42.662;23.260;2022-08-19T13:15:01;93764.44;;;34.36;24.00
20009;BME280;10165;42.662;23.260;2022-08-19T13:17:36;93759.13;;;34.38;23.54
20009;BME280;10165;42.662;23.260;2022-08-19T13:20:04;93763.19;;;34.26;23.91
20009;BME280;10165;42.662;23.260;2022-08-19T13:22:32;93755.38;;;34.30;24.39
20009;BME280;10165;42.662;23.260;2022-08-19T13:24:59;93759.88;;;34.61;23.40